sensor_id;sensor_type;location;lat;lon;timestamp;temperature;humidity
20698;DHT22;10508;50.956;4.640;2022-09-03T00:04:56;19.20;71.80
20698;DHT22;10508;50.956;4.640;2022-09-03T00:07:46;19.10;72.80
20698;DHT22;10508;50.956;4.640;2022-09-03T00:10:20;18.90;72.90
20698;DHT22;10508;50.956;4.640;2022-09-03T00:12:50;18.90;73.50
20698;DHT22;10508;50.956;4.640;2022-09-03T00:15:18;18.90;72.90
20698;DHT22;10508;50.956;4.640;2022-09-03T00:17:58;19.00;72.90
20698;DHT22;10508;50.956;4.640;2022-09-03T00:20:33;19.00;72.50
20698;DHT22;10508;50.956;4.640;2022-09-03T00:23:04;19.00;72.70
20698;DHT22;10508;50.956;4.640;2022-09-03T00:25:47;19.00;72.30
20698;DHT22;10508;50.956;4.640;2022-09-03T00:28:17;19.00;72.50
20698;DHT22;10508;50.956;4.640;2022-09-03T00:30:46;19.00;72.50
20698;DHT22;10508;50.956;4.640;2022-09-03T00:33:23;18.90;72.60
20698;DHT22;10508;50.956;4.640;2022-09-03T00:36:11;18.90;72.80
20698;DHT22;10508;50.956;4.640;2022-09-03T00:38:38;18.90;72.70
20698;DHT22;10508;50.956;4.640;2022-09-03T00:41:07;18.90;73.70
20698;DHT22;10508;50.956;4.640;2022-09-03T00:46:35;18.80;73.20
20698;DHT22;10508;50.956;4.640;2022-09-03T01:00:19;18.90;73.00
20698;DHT22;10508;50.956;4.640;2022-09-03T01:02:51;19.00;73.10
20698;DHT22;10508;50.956;4.640;2022-09-03T01:13:42;19.10;73.00
20698;DHT22;10508;50.956;4.640;2022-09-03T01:22:09;19.10;73.10
20698;DHT22;10508;50.956;4.640;2022-09-03T01:30:47;18.80;74.00
20698;DHT22;10508;50.956;4.640;2022-09-03T01:33:22;18.80;74.30
20698;DHT22;10508;50.956;4.640;2022-09-03T01:39:05;18.70;74.50
20698;DHT22;10508;50.956;4.640;2022-09-03T01:50:09;18.70;75.00
20698;DHT22;10508;50.956;4.640;2022-09-03T01:57:53;18.70;75.10
20698;DHT22;10508;50.956;4.640;2022-09-03T02:00:21;18.90;76.70
20698;DHT22;10508;50.956;4.640;2022-09-03T02:02:49;18.90;76.40
20698;DHT22;10508;50.956;4.640;2022-09-03T02:05:24;18.90;76.50
20698;DHT22;10508;50.956;4.640;2022-09-03T02:07:59;18.80;76.60
20698;DHT22;10508;50.956;4.640;2022-09-03T02:10:33;18.70;77.00
20698;DHT22;10508;50.956;4.640;2022-09-03T02:15:44;18.40;77.70
20698;DHT22;10508;50.956;4.640;2022-09-03T02:18:28;18.50;78.00
20698;DHT22;10508;50.956;4.640;2022-09-03T02:20:56;18.60;78.10
20698;DHT22;10508;50.956;4.640;2022-09-03T02:23:23;18.70;78.00
20698;DHT22;10508;50.956;4.640;2022-09-03T02:25:54;18.70;78.50
20698;DHT22;10508;50.956;4.640;2022-09-03T02:28:20;18.50;78.90
20698;DHT22;10508;50.956;4.640;2022-09-03T02:30:46;18.40;78.80
20698;DHT22;10508;50.956;4.640;2022-09-03T02:33:13;18.50;79.00
20698;DHT22;10508;50.956;4.640;2022-09-03T02:35:41;18.50;78.60
20698;DHT22;10508;50.956;4.640;2022-09-03T02:38:19;18.40;78.80
20698;DHT22;10508;50.956;4.640;2022-09-03T02:40:45;18.40;79.20
20698;DHT22;10508;50.956;4.640;2022-09-03T02:43:16;18.40;79.40
20698;DHT22;10508;50.956;4.640;2022-09-03T02:45:46;18.40;79.60
20698;DHT22;10508;50.956;4.640;2022-09-03T02:48:15;18.40;79.80
20698;DHT22;10508;50.956;4.640;2022-09-03T02:50:43;18.40;80.20
20698;DHT22;10508;50.956;4.640;2022-09-03T02:53:09;18.40;79.90
20698;DHT22;10508;50.956;4.640;2022-09-03T02:55:35;18.50;80.30
20698;DHT22;10508;50.956;4.640;2022-09-03T02:58:00;18.50;80.30
20698;DHT22;10508;50.956;4.640;2022-09-03T03:00:26;18.50;79.90
20698;DHT22;10508;50.956;4.640;2022-09-03T03:02:54;18.60;80.50
20698;DHT22;10508;50.956;4.640;2022-09-03T03:05:25;18.80;79.00
20698;DHT22;10508;50.956;4.640;2022-09-03T03:07:52;18.80;79.00
20698;DHT22;10508;50.956;4.640;2022-09-03T03:10:19;18.70;79.20
20698;DHT22;10508;50.956;4.640;2022-09-03T03:12:45;18.50;79.40
20698;DHT22;10508;50.956;4.640;2022-09-03T03:15:11;18.40;79.90
20698;DHT22;10508;50.956;4.640;2022-09-03T03:17:36;18.30;79.90
20698;DHT22;10508;50.956;4.640;2022-09-03T03:20:02;18.30;79.90
20698;DHT22;10508;50.956;4.640;2022-09-03T03:22:28;18.30;79.70
20698;DHT22;10508;50.956;4.640;2022-09-03T03:24:53;18.30;80.30
20698;DHT22;10508;50.956;4.640;2022-09-03T03:27:21;18.40;80.90
20698;DHT22;10508;50.956;4.640;2022-09-03T03:29:46;18.40;80.90
20698;DHT22;10508;50.956;4.640;2022-09-03T03:32:12;18.40;81.70
20698;DHT22;10508;50.956;4.640;2022-09-03T03:34:38;18.40;81.10
20698;DHT22;10508;50.956;4.640;2022-09-03T03:37:04;18.20;81.90
20698;DHT22;10508;50.956;4.640;2022-09-03T03:39:30;18.10;81.80
20698;DHT22;10508;50.956;4.640;2022-09-03T03:41:55;18.20;82.10
20698;DHT22;10508;50.956;4.640;2022-09-03T03:44:21;18.30;82.40
20698;DHT22;10508;50.956;4.640;2022-09-03T03:46:46;18.10;82.90
20698;DHT22;10508;50.956;4.640;2022-09-03T03:49:12;18.10;82.50
20698;DHT22;10508;50.956;4.640;2022-09-03T03:51:38;18.00;83.10
20698;DHT22;10508;50.956;4.640;2022-09-03T03:54:05;18.00;83.80
20698;DHT22;10508;50.956;4.640;2022-09-03T03:56:31;18.00;83.40
20698;DHT22;10508;50.956;4.640;2022-09-03T03:58:58;18.00;83.80
20698;DHT22;10508;50.956;4.640;2022-09-03T04:01:25;18.00;84.00
20698;DHT22;10508;50.956;4.640;2022-09-03T04:03:54;18.00;84.00
20698;DHT22;10508;50.956;4.640;2022-09-03T04:06:20;18.00;83.90
20698;DHT22;10508;50.956;4.640;2022-09-03T04:08:47;18.00;84.10
20698;DHT22;10508;50.956;4.640;2022-09-03T04:11:15;18.10;83.80
20698;DHT22;10508;50.956;4.640;2022-09-03T04:13:43;18.20;83.20
20698;DHT22;10508;50.956;4.640;2022-09-03T04:16:24;18.40;82.10
20698;DHT22;10508;50.956;4.640;2022-09-03T04:18:50;18.40;81.70
20698;DHT22;10508;50.956;4.640;2022-09-03T04:21:19;18.50;82.60
20698;DHT22;10508;50.956;4.640;2022-09-03T04:23:46;18.30;83.00
20698;DHT22;10508;50.956;4.640;2022-09-03T04:26:15;18.20;83.40
20698;DHT22;10508;50.956;4.640;2022-09-03T04:28:41;18.10;83.20
20698;DHT22;10508;50.956;4.640;2022-09-03T04:31:11;18.20;83.80
20698;DHT22;10508;50.956;4.640;2022-09-03T04:33:38;18.10;84.40
20698;DHT22;10508;50.956;4.640;2022-09-03T04:36:09;18.10;84.30
20698;DHT22;10508;50.956;4.640;2022-09-03T04:38:36;18.00;84.50
20698;DHT22;10508;50.956;4.640;2022-09-03T04:41:04;18.00;85.40
20698;DHT22;10508;50.956;4.640;2022-09-03T04:43:30;18.00;85.20
20698;DHT22;10508;50.956;4.640;2022-09-03T04:46:01;18.10;85.00
20698;DHT22;10508;50.956;4.640;2022-09-03T04:48:27;18.00;85.30
20698;DHT22;10508;50.956;4.640;2022-09-03T04:50:53;18.10;84.30
20698;DHT22;10508;50.956;4.640;2022-09-03T04:53:19;18.20;83.60
20698;DHT22;10508;50.956;4.640;2022-09-03T04:55:45;18.30;83.30
20698;DHT22;10508;50.956;4.640;2022-09-03T04:58:11;18.30;84.80
20698;DHT22;10508;50.956;4.640;2022-09-03T05:00:36;18.20;85.20
20698;DHT22;10508;50.956;4.640;2022-09-03T05:03:02;18.30;86.10
20698;DHT22;10508;50.956;4.640;2022-09-03T05:05:30;18.30;84.90
20698;DHT22;10508;50.956;4.640;2022-09-03T05:07:59;18.20;85.40
20698;DHT22;10508;50.956;4.640;2022-09-03T05:10:29;18.20;86.80
20698;DHT22;10508;50.956;4.640;2022-09-03T05:13:03;18.10;85.40
20698;DHT22;10508;50.956;4.640;2022-09-03T05:15:30;18.10;86.20
20698;DHT22;10508;50.956;4.640;2022-09-03T05:17:58;18.10;86.20
20698;DHT22;10508;50.956;4.640;2022-09-03T05:20:26;18.20;84.70
20698;DHT22;10508;50.956;4.640;2022-09-03T05:22:55;18.10;86.80
20698;DHT22;10508;50.956;4.640;2022-09-03T05:25:21;18.00;87.70
20698;DHT22;10508;50.956;4.640;2022-09-03T05:27:47;18.00;88.80
20698;DHT22;10508;50.956;4.640;2022-09-03T05:30:13;18.00;89.00
20698;DHT22;10508;50.956;4.640;2022-09-03T05:32:39;17.90;90.30
20698;DHT22;10508;50.956;4.640;2022-09-03T05:35:06;17.90;90.30
20698;DHT22;10508;50.956;4.640;2022-09-03T05:37:32;17.90;89.40
20698;DHT22;10508;50.956;4.640;2022-09-03T05:39:58;18.00;89.50
20698;DHT22;10508;50.956;4.640;2022-09-03T05:42:23;18.00;90.30
20698;DHT22;10508;50.956;4.640;2022-09-03T05:44:50;17.90;89.10
20698;DHT22;10508;50.956;4.640;2022-09-03T05:47:15;18.00;88.80
20698;DHT22;10508;50.956;4.640;2022-09-03T05:49:41;18.00;88.10
20698;DHT22;10508;50.956;4.640;2022-09-03T05:52:07;18.00;88.50
20698;DHT22;10508;50.956;4.640;2022-09-03T05:54:34;17.90;89.70
20698;DHT22;10508;50.956;4.640;2022-09-03T05:57:00;17.90;90.10
20698;DHT22;10508;50.956;4.640;2022-09-03T05:59:25;17.90;90.60
20698;DHT22;10508;50.956;4.640;2022-09-03T06:01:51;18.00;90.20
20698;DHT22;10508;50.956;4.640;2022-09-03T06:04:17;18.00;89.80
20698;DHT22;10508;50.956;4.640;2022-09-03T06:06:44;18.00;88.30
20698;DHT22;10508;50.956;4.640;2022-09-03T06:09:15;18.00;88.30
20698;DHT22;10508;50.956;4.640;2022-09-03T06:11:42;18.00;88.20
20698;DHT22;10508;50.956;4.640;2022-09-03T06:14:10;18.00;87.20
20698;DHT22;10508;50.956;4.640;2022-09-03T06:16:39;18.20;87.00
20698;DHT22;10508;50.956;4.640;2022-09-03T06:19:05;18.20;88.00
20698;DHT22;10508;50.956;4.640;2022-09-03T06:21:52;18.20;86.10
20698;DHT22;10508;50.956;4.640;2022-09-03T06:24:19;18.30;86.10
20698;DHT22;10508;50.956;4.640;2022-09-03T06:26:48;18.30;85.90
20698;DHT22;10508;50.956;4.640;2022-09-03T06:29:15;18.30;86.20
20698;DHT22;10508;50.956;4.640;2022-09-03T06:31:41;18.30;87.20
20698;DHT22;10508;50.956;4.640;2022-09-03T06:34:07;18.30;86.10
20698;DHT22;10508;50.956;4.640;2022-09-03T06:36:32;18.30;84.60
20698;DHT22;10508;50.956;4.640;2022-09-03T06:38:58;18.50;84.30
20698;DHT22;10508;50.956;4.640;2022-09-03T06:41:29;18.60;83.30
20698;DHT22;10508;50.956;4.640;2022-09-03T06:44:05;18.60;83.10
20698;DHT22;10508;50.956;4.640;2022-09-03T06:46:37;18.70;84.00
20698;DHT22;10508;50.956;4.640;2022-09-03T06:49:03;18.80;83.10
20698;DHT22;10508;50.956;4.640;2022-09-03T06:51:30;19.00;82.40
20698;DHT22;10508;50.956;4.640;2022-09-03T06:54:15;19.00;82.10
20698;DHT22;10508;50.956;4.640;2022-09-03T06:56:41;18.90;82.70
20698;DHT22;10508;50.956;4.640;2022-09-03T06:59:11;19.10;83.30
20698;DHT22;10508;50.956;4.640;2022-09-03T07:01:38;19.20;82.00
20698;DHT22;10508;50.956;4.640;2022-09-03T07:04:06;19.30;82.00
20698;DHT22;10508;50.956;4.640;2022-09-03T07:06:34;19.30;81.80
20698;DHT22;10508;50.956;4.640;2022-09-03T07:09:07;19.40;81.80
20698;DHT22;10508;50.956;4.640;2022-09-03T07:11:33;19.70;82.30
20698;DHT22;10508;50.956;4.640;2022-09-03T07:14:02;19.90;81.50
20698;DHT22;10508;50.956;4.640;2022-09-03T07:16:34;20.00;80.90
20698;DHT22;10508;50.956;4.640;2022-09-03T07:19:00;20.20;80.70
20698;DHT22;10508;50.956;4.640;2022-09-03T07:21:29;20.40;80.70
20698;DHT22;10508;50.956;4.640;2022-09-03T07:23:55;20.50;80.30
20698;DHT22;10508;50.956;4.640;2022-09-03T07:26:24;20.70;79.10
20698;DHT22;10508;50.956;4.640;2022-09-03T07:28:51;20.70;79.50
20698;DHT22;10508;50.956;4.640;2022-09-03T07:31:21;20.80;80.10
20698;DHT22;10508;50.956;4.640;2022-09-03T07:34:02;20.90;79.00
20698;DHT22;10508;50.956;4.640;2022-09-03T07:36:34;20.90;79.60
20698;DHT22;10508;50.956;4.640;2022-09-03T07:39:02;20.90;78.70
20698;DHT22;10508;50.956;4.640;2022-09-03T07:41:28;20.90;79.80
20698;DHT22;10508;50.956;4.640;2022-09-03T07:43:55;20.90;78.00
20698;DHT22;10508;50.956;4.640;2022-09-03T07:46:23;20.90;78.20
20698;DHT22;10508;50.956;4.640;2022-09-03T07:48:50;21.00;78.40
20698;DHT22;10508;50.956;4.640;2022-09-03T07:51:18;21.00;78.50
20698;DHT22;10508;50.956;4.640;2022-09-03T07:53:47;21.00;78.90
20698;DHT22;10508;50.956;4.640;2022-09-03T07:56:14;21.10;79.00
20698;DHT22;10508;50.956;4.640;2022-09-03T07:58:40;21.10;79.70
20698;DHT22;10508;50.956;4.640;2022-09-03T08:01:18;21.20;79.00
20698;DHT22;10508;50.956;4.640;2022-09-03T08:03:46;21.30;79.40
20698;DHT22;10508;50.956;4.640;2022-09-03T08:06:13;21.30;79.70
20698;DHT22;10508;50.956;4.640;2022-09-03T08:08:40;21.40;79.30
20698;DHT22;10508;50.956;4.640;2022-09-03T08:11:08;21.50;79.20
20698;DHT22;10508;50.956;4.640;2022-09-03T08:13:36;21.50;79.20
20698;DHT22;10508;50.956;4.640;2022-09-03T08:16:02;21.50;79.00
20698;DHT22;10508;50.956;4.640;2022-09-03T08:18:29;21.60;79.20
20698;DHT22;10508;50.956;4.640;2022-09-03T08:20:58;21.70;78.50
20698;DHT22;10508;50.956;4.640;2022-09-03T08:23:24;21.80;78.40
20698;DHT22;10508;50.956;4.640;2022-09-03T08:26:00;22.00;77.80
20698;DHT22;10508;50.956;4.640;2022-09-03T08:28:26;22.30;78.00
20698;DHT22;10508;50.956;4.640;2022-09-03T08:30:52;22.50;77.30
20698;DHT22;10508;50.956;4.640;2022-09-03T08:33:18;22.60;77.60
20698;DHT22;10508;50.956;4.640;2022-09-03T08:36:25;22.80;77.10
20698;DHT22;10508;50.956;4.640;2022-09-03T08:38:52;23.10;77.50
20698;DHT22;10508;50.956;4.640;2022-09-03T08:49:52;23.90;75.40
20698;DHT22;10508;50.956;4.640;2022-09-03T08:57:46;24.70;72.70
20698;DHT22;10508;50.956;4.640;2022-09-03T09:00:13;24.50;74.70
20698;DHT22;10508;50.956;4.640;2022-09-03T09:05:22;25.00;73.00
20698;DHT22;10508;50.956;4.640;2022-09-03T09:08:20;25.30;73.60
20698;DHT22;10508;50.956;4.640;2022-09-03T09:10:57;25.80;72.70
20698;DHT22;10508;50.956;4.640;2022-09-03T09:13:35;25.90;70.80
20698;DHT22;10508;50.956;4.640;2022-09-03T09:21:58;25.90;71.60
20698;DHT22;10508;50.956;4.640;2022-09-03T09:24:31;26.00;70.40
20698;DHT22;10508;50.956;4.640;2022-09-03T09:27:03;25.90;71.10
20698;DHT22;10508;50.956;4.640;2022-09-03T09:29:37;26.00;72.20
20698;DHT22;10508;50.956;4.640;2022-09-03T09:32:04;26.40;71.50
20698;DHT22;10508;50.956;4.640;2022-09-03T09:34:36;26.10;72.20
20698;DHT22;10508;50.956;4.640;2022-09-03T09:37:06;26.30;71.70
20698;DHT22;10508;50.956;4.640;2022-09-03T09:39:33;26.50;70.70
20698;DHT22;10508;50.956;4.640;2022-09-03T09:42:10;26.60;72.60
20698;DHT22;10508;50.956;4.640;2022-09-03T09:44:41;26.80;71.50
20698;DHT22;10508;50.956;4.640;2022-09-03T09:47:28;26.90;71.10
20698;DHT22;10508;50.956;4.640;2022-09-03T09:50:00;26.70;70.80
20698;DHT22;10508;50.956;4.640;2022-09-03T09:52:28;26.80;72.70
20698;DHT22;10508;50.956;4.640;2022-09-03T09:55:13;27.10;72.30
20698;DHT22;10508;50.956;4.640;2022-09-03T09:57:39;27.50;71.40
20698;DHT22;10508;50.956;4.640;2022-09-03T10:00:11;27.50;70.60
20698;DHT22;10508;50.956;4.640;2022-09-03T10:02:45;27.80;71.90
20698;DHT22;10508;50.956;4.640;2022-09-03T10:05:38;27.80;70.70
20698;DHT22;10508;50.956;4.640;2022-09-03T10:08:20;27.80;71.10
20698;DHT22;10508;50.956;4.640;2022-09-03T10:10:48;27.50;71.90
20698;DHT22;10508;50.956;4.640;2022-09-03T10:13:20;27.40;72.60
20698;DHT22;10508;50.956;4.640;2022-09-03T10:16:02;27.50;73.20
20698;DHT22;10508;50.956;4.640;2022-09-03T10:21:07;28.10;73.60
20698;DHT22;10508;50.956;4.640;2022-09-03T10:26:27;27.90;72.60
20698;DHT22;10508;50.956;4.640;2022-09-03T10:28:59;27.70;72.90
20698;DHT22;10508;50.956;4.640;2022-09-03T10:37:21;27.10;74.50
20698;DHT22;10508;50.956;4.640;2022-09-03T10:40:10;27.10;74.90
20698;DHT22;10508;50.956;4.640;2022-09-03T10:45:31;27.30;75.00
20698;DHT22;10508;50.956;4.640;2022-09-03T10:48:28;27.70;75.00
20698;DHT22;10508;50.956;4.640;2022-09-03T10:51:04;28.10;73.20
20698;DHT22;10508;50.956;4.640;2022-09-03T10:53:58;27.80;73.90
20698;DHT22;10508;50.956;4.640;2022-09-03T11:01:46;27.70;75.40
20698;DHT22;10508;50.956;4.640;2022-09-03T11:06:53;28.80;72.50
20698;DHT22;10508;50.956;4.640;2022-09-03T11:09:38;28.70;72.20
20698;DHT22;10508;50.956;4.640;2022-09-03T11:12:26;28.50;71.40
20698;DHT22;10508;50.956;4.640;2022-09-03T11:15:02;28.80;71.30
20698;DHT22;10508;50.956;4.640;2022-09-03T11:17:44;28.80;71.90
20698;DHT22;10508;50.956;4.640;2022-09-03T11:20:20;28.80;71.50
20698;DHT22;10508;50.956;4.640;2022-09-03T11:22:48;29.20;71.80
20698;DHT22;10508;50.956;4.640;2022-09-03T11:25:17;29.30;70.40
20698;DHT22;10508;50.956;4.640;2022-09-03T11:28:36;28.60;70.80
20698;DHT22;10508;50.956;4.640;2022-09-03T11:33:32;28.40;72.40
20698;DHT22;10508;50.956;4.640;2022-09-03T11:36:05;28.40;72.40
20698;DHT22;10508;50.956;4.640;2022-09-03T11:38:30;28.30;72.80
20698;DHT22;10508;50.956;4.640;2022-09-03T11:41:41;28.00;73.90
20698;DHT22;10508;50.956;4.640;2022-09-03T11:43:47;28.20;73.80
20698;DHT22;10508;50.956;4.640;2022-09-03T11:48:50;28.60;72.90
20698;DHT22;10508;50.956;4.640;2022-09-03T11:51:19;29.00;70.90
20698;DHT22;10508;50.956;4.640;2022-09-03T11:54:03;29.40;69.70
20698;DHT22;10508;50.956;4.640;2022-09-03T11:56:31;29.40;68.20
20698;DHT22;10508;50.956;4.640;2022-09-03T11:59:15;29.60;69.10
20698;DHT22;10508;50.956;4.640;2022-09-03T12:01:46;29.60;69.90
20698;DHT22;10508;50.956;4.640;2022-09-03T12:04:34;29.10;70.10
20698;DHT22;10508;50.956;4.640;2022-09-03T12:10:16;29.10;69.60
20698;DHT22;10508;50.956;4.640;2022-09-03T12:12:57;29.10;69.40
20698;DHT22;10508;50.956;4.640;2022-09-03T12:18:29;28.40;70.70
20698;DHT22;10508;50.956;4.640;2022-09-03T12:26:09;29.20;69.80
20698;DHT22;10508;50.956;4.640;2022-09-03T12:28:40;29.60;68.60
20698;DHT22;10508;50.956;4.640;2022-09-03T12:31:24;29.90;68.80
20698;DHT22;10508;50.956;4.640;2022-09-03T12:33:53;29.50;68.80
20698;DHT22;10508;50.956;4.640;2022-09-03T12:36:21;29.30;69.90
20698;DHT22;10508;50.956;4.640;2022-09-03T12:38:47;29.20;70.50
20698;DHT22;10508;50.956;4.640;2022-09-03T12:41:28;29.20;70.50
20698;DHT22;10508;50.956;4.640;2022-09-03T12:43:57;28.70;71.20
20698;DHT22;10508;50.956;4.640;2022-09-03T12:46:28;28.80;72.00
20698;DHT22;10508;50.956;4.640;2022-09-03T12:49:04;29.20;70.60
20698;DHT22;10508;50.956;4.640;2022-09-03T12:51:33;29.30;70.10
20698;DHT22;10508;50.956;4.640;2022-09-03T12:54:01;29.20;69.70
20698;DHT22;10508;50.956;4.640;2022-09-03T12:56:28;28.90;70.10
20698;DHT22;10508;50.956;4.640;2022-09-03T12:59:03;29.10;70.80
20698;DHT22;10508;50.956;4.640;2022-09-03T13:01:34;29.30;71.30
20698;DHT22;10508;50.956;4.640;2022-09-03T13:04:05;29.20;71.80
20698;DHT22;10508;50.956;4.640;2022-09-03T13:09:07;28.90;72.40
20698;DHT22;10508;50.956;4.640;2022-09-03T13:11:35;29.00;72.00
20698;DHT22;10508;50.956;4.640;2022-09-03T13:14:10;28.90;72.80
20698;DHT22;10508;50.956;4.640;2022-09-03T13:24:39;29.00;72.70
20698;DHT22;10508;50.956;4.640;2022-09-03T13:27:33;28.70;70.70
20698;DHT22;10508;50.956;4.640;2022-09-03T13:30:14;28.90;71.40
20698;DHT22;10508;50.956;4.640;2022-09-03T13:38:26;28.60;71.60
20698;DHT22;10508;50.956;4.640;2022-09-03T13:43:59;28.90;70.00
20698;DHT22;10508;50.956;4.640;2022-09-03T13:46:43;29.20;68.40
20698;DHT22;10508;50.956;4.640;2022-09-03T13:52:03;29.80;67.10
20698;DHT22;10508;50.956;4.640;2022-09-03T13:54:42;30.20;66.70
20698;DHT22;10508;50.956;4.640;2022-09-03T14:02:47;29.70;67.30
20698;DHT22;10508;50.956;4.640;2022-09-03T14:18:58;30.00;67.00
20698;DHT22;10508;50.956;4.640;2022-09-03T14:21:33;29.70;67.20
20698;DHT22;10508;50.956;4.640;2022-09-03T14:24:14;29.20;68.20
20698;DHT22;10508;50.956;4.640;2022-09-03T14:29:16;29.10;69.60
20698;DHT22;10508;50.956;4.640;2022-09-03T14:42:40;29.00;69.00
20698;DHT22;10508;50.956;4.640;2022-09-03T14:47:57;28.60;70.20
20698;DHT22;10508;50.956;4.640;2022-09-03T14:56:08;28.60;70.40
20698;DHT22;10508;50.956;4.640;2022-09-03T15:01:39;28.40;70.60
20698;DHT22;10508;50.956;4.640;2022-09-03T15:14:51;27.70;75.50
20698;DHT22;10508;50.956;4.640;2022-09-03T15:17:53;27.70;79.40
20698;DHT22;10508;50.956;4.640;2022-09-03T15:20:49;27.00;86.70
20698;DHT22;10508;50.956;4.640;2022-09-03T15:37:16;24.80;99.30
20698;DHT22;10508;50.956;4.640;2022-09-03T15:39:44;24.80;99.90
20698;DHT22;10508;50.956;4.640;2022-09-03T15:42:24;25.00;99.90
20698;DHT22;10508;50.956;4.640;2022-09-03T15:44:55;25.00;99.90
20698;DHT22;10508;50.956;4.640;2022-09-03T15:50:34;25.00;99.90
20698;DHT22;10508;50.956;4.640;2022-09-03T15:56:33;25.00;99.90
20698;DHT22;10508;50.956;4.640;2022-09-03T16:04:22;24.70;99.90
20698;DHT22;10508;50.956;4.640;2022-09-03T16:06:55;24.50;99.90
20698;DHT22;10508;50.956;4.640;2022-09-03T16:13:12;24.60;99.90
20698;DHT22;10508;50.956;4.640;2022-09-03T16:15:44;24.70;99.90
20698;DHT22;10508;50.956;4.640;2022-09-03T16:18:26;24.80;99.90
20698;DHT22;10508;50.956;4.640;2022-09-03T16:29:13;24.60;99.90
20698;DHT22;10508;50.956;4.640;2022-09-03T16:32:08;24.60;99.90
20698;DHT22;10508;50.956;4.640;2022-09-03T16:40:16;24.60;99.90
20698;DHT22;10508;50.956;4.640;2022-09-03T16:48:19;24.20;99.90
20698;DHT22;10508;50.956;4.640;2022-09-03T16:58:42;23.90;99.00
20698;DHT22;10508;50.956;4.640;2022-09-03T17:09:15;23.30;99.90
20698;DHT22;10508;50.956;4.640;2022-09-03T17:12:20;23.20;96.70
20698;DHT22;10508;50.956;4.640;2022-09-03T17:23:17;22.70;97.10
20698;DHT22;10508;50.956;4.640;2022-09-03T17:34:10;22.60;96.80
20698;DHT22;10508;50.956;4.640;2022-09-03T17:36:55;22.60;96.40
20698;DHT22;10508;50.956;4.640;2022-09-03T17:39:41;22.60;97.50
20698;DHT22;10508;50.956;4.640;2022-09-03T17:42:40;22.70;99.10
20698;DHT22;10508;50.956;4.640;2022-09-03T17:48:15;22.50;99.90
20698;DHT22;10508;50.956;4.640;2022-09-03T17:50:50;22.30;99.90
20698;DHT22;10508;50.956;4.640;2022-09-03T17:53:26;22.20;99.90
20698;DHT22;10508;50.956;4.640;2022-09-03T17:56:05;22.20;99.90
20698;DHT22;10508;50.956;4.640;2022-09-03T17:59:20;22.10;99.90
20698;DHT22;10508;50.956;4.640;2022-09-03T18:02:08;22.00;99.90
20698;DHT22;10508;50.956;4.640;2022-09-03T18:04:48;22.10;99.90
20698;DHT22;10508;50.956;4.640;2022-09-03T18:12:46;22.00;99.90
20698;DHT22;10508;50.956;4.640;2022-09-03T18:15:18;21.90;99.90
20698;DHT22;10508;50.956;4.640;2022-09-03T18:18:04;21.80;99.90
20698;DHT22;10508;50.956;4.640;2022-09-03T18:20:42;21.80;99.90
20698;DHT22;10508;50.956;4.640;2022-09-03T18:26:41;21.70;99.90
20698;DHT22;10508;50.956;4.640;2022-09-03T18:29:36;21.60;99.90
20698;DHT22;10508;50.956;4.640;2022-09-03T18:32:20;21.60;99.90
20698;DHT22;10508;50.956;4.640;2022-09-03T18:35:05;21.60;99.90
20698;DHT22;10508;50.956;4.640;2022-09-03T18:37:50;21.50;99.90
20698;DHT22;10508;50.956;4.640;2022-09-03T18:40:41;21.40;99.90
20698;DHT22;10508;50.956;4.640;2022-09-03T18:53:05;21.60;99.90
20698;DHT22;10508;50.956;4.640;2022-09-03T18:56:18;21.40;99.90
20698;DHT22;10508;50.956;4.640;2022-09-03T18:59:26;21.30;99.90
20698;DHT22;10508;50.956;4.640;2022-09-03T19:05:47;21.40;99.90
20698;DHT22;10508;50.956;4.640;2022-09-03T19:08:42;21.30;99.90
20698;DHT22;10508;50.956;4.640;2022-09-03T19:11:40;21.20;99.90
20698;DHT22;10508;50.956;4.640;2022-09-03T19:20:31;21.30;99.90
20698;DHT22;10508;50.956;4.640;2022-09-03T19:23:18;21.30;99.90
20698;DHT22;10508;50.956;4.640;2022-09-03T19:26:22;21.20;99.90
20698;DHT22;10508;50.956;4.640;2022-09-03T19:30:08;21.20;99.90
20698;DHT22;10508;50.956;4.640;2022-09-03T19:42:45;21.20;99.90
20698;DHT22;10508;50.956;4.640;2022-09-03T19:48:50;20.90;99.90
20698;DHT22;10508;50.956;4.640;2022-09-03T19:51:44;20.70;99.90
20698;DHT22;10508;50.956;4.640;2022-09-03T19:54:34;20.60;99.90
20698;DHT22;10508;50.956;4.640;2022-09-03T19:57:19;20.50;99.90
20698;DHT22;10508;50.956;4.640;2022-09-03T20:00:04;20.50;99.90
20698;DHT22;10508;50.956;4.640;2022-09-03T20:02:49;20.50;99.90
20698;DHT22;10508;50.956;4.640;2022-09-03T20:05:36;20.70;99.90
20698;DHT22;10508;50.956;4.640;2022-09-03T20:08:22;20.60;99.90
20698;DHT22;10508;50.956;4.640;2022-09-03T20:11:16;20.50;99.90
20698;DHT22;10508;50.956;4.640;2022-09-03T20:13:43;20.40;99.90
20698;DHT22;10508;50.956;4.640;2022-09-03T20:19:17;20.60;99.90
20698;DHT22;10508;50.956;4.640;2022-09-03T20:24:59;20.50;99.90
20698;DHT22;10508;50.956;4.640;2022-09-03T20:30:29;20.00;99.90
20698;DHT22;10508;50.956;4.640;2022-09-03T20:33:25;20.00;99.90
20698;DHT22;10508;50.956;4.640;2022-09-03T20:36:15;20.10;99.90
20698;DHT22;10508;50.956;4.640;2022-09-03T20:41:52;20.40;99.90
20698;DHT22;10508;50.956;4.640;2022-09-03T20:44:26;20.20;99.90
20698;DHT22;10508;50.956;4.640;2022-09-03T20:53:34;19.70;99.90
20698;DHT22;10508;50.956;4.640;2022-09-03T20:55:47;19.80;99.90
20698;DHT22;10508;50.956;4.640;2022-09-03T20:58:37;19.80;99.90
20698;DHT22;10508;50.956;4.640;2022-09-03T21:01:15;20.00;99.90
20698;DHT22;10508;50.956;4.640;2022-09-03T21:06:39;19.70;99.90
20698;DHT22;10508;50.956;4.640;2022-09-03T21:09:18;19.80;99.90
20698;DHT22;10508;50.956;4.640;2022-09-03T21:15:08;19.80;99.90
20698;DHT22;10508;50.956;4.640;2022-09-03T21:20:44;19.60;99.90
20698;DHT22;10508;50.956;4.640;2022-09-03T21:23:21;19.70;99.90
20698;DHT22;10508;50.956;4.640;2022-09-03T21:26:08;19.60;99.90
20698;DHT22;10508;50.956;4.640;2022-09-03T21:28:40;19.50;99.90
20698;DHT22;10508;50.956;4.640;2022-09-03T21:31:22;19.40;99.90
20698;DHT22;10508;50.956;4.640;2022-09-03T21:33:52;19.30;99.90
20698;DHT22;10508;50.956;4.640;2022-09-03T21:36:32;19.20;99.90
20698;DHT22;10508;50.956;4.640;2022-09-03T21:39:12;19.20;99.90
20698;DHT22;10508;50.956;4.640;2022-09-03T21:41:43;19.20;99.90
20698;DHT22;10508;50.956;4.640;2022-09-03T21:44:39;19.20;99.90
20698;DHT22;10508;50.956;4.640;2022-09-03T21:47:00;19.30;99.90
20698;DHT22;10508;50.956;4.640;2022-09-03T21:49:37;19.30;99.90
20698;DHT22;10508;50.956;4.640;2022-09-03T21:52:11;19.30;99.90
20698;DHT22;10508;50.956;4.640;2022-09-03T21:54:38;19.20;99.90
20698;DHT22;10508;50.956;4.640;2022-09-03T22:02:33;19.10;99.90
20698;DHT22;10508;50.956;4.640;2022-09-03T22:05:01;19.10;99.90